Time;durP1;ratioP1;P1;durP2;ratioP2;P2;SDS_P1;SDS_P2;PMS_P1;PMS_P2;Temp;Humidity;BMP_temperature;BMP_pressure;BME280_temperature;BME280_humidity;BME280_pressure;Samples;Min_cycle;Max_cycle;Signal;HPM_P1;HPM_P2
2021/12/03 00:00:13;;;;;;;;;32.00;30.00;;;;;7.24;58.31;101044.22;5032079;28;44914;-67
2021/12/03 00:02:38;;;;;;;;;25.25;20.75;;;;;7.18;58.86;101040.47;5031429;28;45265;-69
2021/12/03 00:05:04;;;;;;;;;39.50;29.25;;;;;7.05;58.15;101011.53;5031985;28;44927;-67
2021/12/03 00:07:30;;;;;;;;;58.50;45.25;;;;;7.24;58.54;101034.50;5031673;28;45019;-68
2021/12/03 00:09:57;;;;;;;;;42.25;33.75;;;;;7.07;58.32;101011.59;5030816;28;44908;-70
2021/12/03 00:12:22;;;;;;;;;22.25;19.00;;;;;7.19;58.34;101025.41;5031716;28;45063;-70
2021/12/03 00:14:47;;;;;;;;;14.00;14.00;;;;;6.93;58.43;100989.72;5031963;28;44997;-70
2021/12/03 00:17:13;;;;;;;;;17.00;15.75;;;;;7.20;58.50;101038.78;5031931;28;45682;-68
2021/12/03 00:19:38;;;;;;;;;14.75;13.75;;;;;7.23;58.34;101045.09;5031826;28;44984;-71
2021/12/03 00:22:04;;;;;;;;;16.50;14.00;;;;;7.08;58.34;101030.25;5031769;28;44981;-68
2021/12/03 00:24:29;;;;;;;;;16.75;13.00;;;;;7.08;58.45;101022.28;5032764;28;44893;-68
2021/12/03 00:26:54;;;;;;;;;12.25;12.25;;;;;7.19;58.35;101041.34;5031689;28;45181;-68
2021/12/03 00:29:20;;;;;;;;;18.75;11.75;;;;;7.15;58.38;101044.72;5047271;28;44997;-68
2021/12/03 00:31:45;;;;;;;;;31.75;24.75;;;;;6.99;58.57;101016.56;5030811;28;45013;-70
2021/12/03 00:34:10;;;;;;;;;13.75;12.25;;;;;7.19;58.72;101044.00;5032283;28;45121;-67
2021/12/03 00:36:36;;;;;;;;;14.00;10.25;;;;;6.98;58.29;100997.06;5031958;28;45010;-66
2021/12/03 00:39:02;;;;;;;;;14.25;12.75;;;;;7.21;58.10;101034.38;5031141;28;45257;-66
2021/12/03 00:41:34;;;;;;;;;17.00;14.50;;;;;7.09;58.14;101007.25;5025681;28;45143;-68
2021/12/03 00:44:00;;;;;;;;;18.25;12.25;;;;;7.19;58.17;101036.97;5030691;28;45772;-70
2021/12/03 00:46:25;;;;;;;;;15.00;13.25;;;;;6.72;58.48;100966.66;5031960;28;45275;-70
2021/12/03 00:48:53;;;;;;;;;23.75;10.50;;;;;6.98;58.57;101012.09;5031533;28;45156;-65
2021/12/03 00:51:21;;;;;;;;;19.25;10.50;;;;;7.12;58.32;101040.19;5042771;28;45181;-70
2021/12/03 00:53:47;;;;;;;;;15.75;11.25;;;;;7.10;58.32;101040.97;5027567;28;45290;-69
2021/12/03 00:56:13;;;;;;;;;16.25;10.25;;;;;7.09;58.58;101048.00;5030406;28;45320;-67
2021/12/03 00:58:39;;;;;;;;;21.50;17.00;;;;;6.85;58.32;101000.00;5026052;28;45121;-68
2021/12/03 01:01:07;;;;;;;;;7.50;7.50;;;;;7.13;58.40;101054.38;5014845;28;45100;-66
2021/12/03 01:03:36;;;;;;;;;15.75;12.50;;;;;7.11;58.71;101051.66;5031625;28;45125;-66
2021/12/03 01:06:02;;;;;;;;;12.50;9.50;;;;;7.03;58.37;101049.47;5029862;28;46315;-68
2021/12/03 01:08:28;;;;;;;;;12.75;10.75;;;;;7.19;58.52;101063.53;5031318;28;45151;-69
2021/12/03 01:10:54;;;;;;;;;13.50;11.75;;;;;7.06;58.56;101031.03;5033273;28;45052;-68
2021/12/03 01:13:19;;;;;;;;;12.25;10.25;;;;;7.22;58.16;101043.25;5035218;28;45080;-67
2021/12/03 01:15:47;;;;;;;;;10.00;10.00;;;;;7.28;57.83;101057.72;5033999;28;45698;-68
2021/12/03 01:18:14;;;;;;;;;9.00;9.00;;;;;7.27;58.08;101063.88;5034875;28;45063;-64
2021/12/03 01:20:42;;;;;;;;;12.00;12.00;;;;;7.08;58.21;101035.59;5035046;28;45118;-70
2021/12/03 01:23:10;;;;;;;;;11.25;9.00;;;;;7.34;57.93;101075.69;5034935;28;45017;-67
2021/12/03 01:25:37;;;;;;;;;11.25;9.75;;;;;7.27;57.74;101053.25;5032981;28;46497;-69
2021/12/03 01:28:03;;;;;;;;;10.00;10.00;;;;;7.11;57.83;101016.19;5034182;28;44977;-69
2021/12/03 01:30:30;;;;;;;;;17.25;15.25;;;;;7.26;57.88;101054.09;5034456;28;45025;-67
2021/12/03 01:32:57;;;;;;;;;12.25;9.50;;;;;7.43;57.74;101077.88;5034049;28;44914;-69
2021/12/03 01:35:23;;;;;;;;;10.25;10.25;;;;;7.40;57.70;101073.31;5033771;28;44971;-67
2021/12/03 01:37:49;;;;;;;;;16.25;14.25;;;;;7.40;57.77;101078.63;5032597;28;45061;-68
2021/12/03 01:40:18;;;;;;;;;16.50;9.25;;;;;7.24;57.66;101047.78;5034326;28;44934;-70
2021/12/03 01:42:45;;;;;;;;;14.75;13.50;;;;;7.28;57.80;101059.50;5034674;28;45013;-67
2021/12/03 01:45:14;;;;;;;;;11.00;10.50;;;;;7.43;58.09;101077.88;5034036;28;45120;-69
2021/12/03 01:47:44;;;;;;;;;12.25;8.75;;;;;7.38;58.11;101059.03;5034251;28;45188;-69
2021/12/03 01:50:11;;;;;;;;;18.25;8.75;;;;;7.49;57.70;101078.09;5032581;28;45296;-70
2021/12/03 01:52:37;;;;;;;;;11.00;9.50;;;;;7.19;57.46;101029.00;5033026;28;45278;-70
2021/12/03 01:55:05;;;;;;;;;12.50;10.75;;;;;7.25;57.82;101049.63;5032394;28;45869;-68
2021/12/03 01:57:31;;;;;;;;;14.50;12.75;;;;;7.34;57.94;101088.97;5033131;28;45316;-63
2021/12/03 01:59:56;;;;;;;;;9.00;7.00;;;;;7.44;57.80;101084.97;5032356;28;45038;-67
2021/12/03 02:02:22;;;;;;;;;15.00;8.75;;;;;7.40;57.37;101107.88;5033190;28;44931;-71
2021/12/03 02:04:47;;;;;;;;;11.75;10.75;;;;;7.27;57.58;101090.44;5033103;28;46234;-67
2021/12/03 02:07:14;;;;;;;;;8.75;7.25;;;;;7.27;57.83;101086.88;5033211;28;45028;-69
2021/12/03 02:09:40;;;;;;;;;8.50;8.00;;;;;7.10;57.97;101063.13;5032006;28;45119;-67
2021/12/03 02:12:05;;;;;;;;;7.00;6.50;;;;;7.20;58.03;101083.03;5032995;28;45189;-69
2021/12/03 02:14:31;;;;;;;;;9.50;8.50;;;;;7.16;58.22;101089.97;5032062;28;45606;-64
2021/12/03 02:16:56;;;;;;;;;17.50;9.75;;;;;6.91;58.38;101049.81;5032806;28;44941;-69
2021/12/03 02:19:22;;;;;;;;;8.50;8.50;;;;;6.98;57.72;101062.56;5033381;28;45384;-69
2021/12/03 02:21:47;;;;;;;;;9.00;7.50;;;;;6.95;58.61;101065.09;5032440;28;45193;-69
2021/12/03 02:24:14;;;;;;;;;12.25;8.25;;;;;7.09;58.50;101077.22;5033770;28;45593;-65
2021/12/03 02:26:41;;;;;;;;;8.00;7.25;;;;;6.63;58.83;100996.38;5033476;28;45061;-67
2021/12/03 02:29:07;;;;;;;;;8.25;7.00;;;;;7.13;58.19;101092.50;5033862;28;45071;-68
2021/12/03 02:31:34;;;;;;;;;12.00;9.50;;;;;7.08;58.33;101080.75;5033861;28;44890;-66
2021/12/03 02:33:59;;;;;;;;;6.75;6.50;;;;;7.00;58.08;101069.75;5031810;28;46143;-70
2021/12/03 02:36:25;;;;;;;;;11.00;8.25;;;;;7.04;58.25;101086.75;5033405;28;45039;-67
2021/12/03 02:38:51;;;;;;;;;18.00;9.00;;;;;7.02;58.74;101077.78;5033196;28;45131;-68
2021/12/03 02:41:17;;;;;;;;;9.75;9.75;;;;;6.67;58.86;101025.72;5033227;28;44914;-65
2021/12/03 02:43:43;;;;;;;;;7.75;6.25;;;;;6.77;58.52;101047.44;5031853;28;46285;-68
2021/12/03 02:46:09;;;;;;;;;7.00;7.00;;;;;7.01;58.79;101075.97;5032101;28;45294;-70
2021/12/03 02:48:36;;;;;;;;;9.50;8.25;;;;;7.00;58.60;101082.13;5032090;28;45390;-70
2021/12/03 02:51:03;;;;;;;;;8.75;7.75;;;;;6.96;58.91;101081.09;5031975;28;45011;-67
2021/12/03 02:53:29;;;;;;;;;9.00;7.50;;;;;6.77;59.00;101050.09;5028970;28;46423;-64
2021/12/03 02:55:54;;;;;;;;;8.50;7.50;;;;;6.85;58.75;101052.19;5032188;28;44903;-68
2021/12/03 02:58:20;;;;;;;;;8.50;8.50;;;;;6.89;58.88;101063.03;5034037;28;45179;-68
2021/12/03 03:00:48;;;;;;;;;18.75;8.00;;;;;6.62;58.83;101005.16;5033380;28;45244;-68
2021/12/03 03:03:14;;;;;;;;;8.00;6.50;;;;;6.87;58.76;101035.50;5032853;28;45564;-67
2021/12/03 03:05:39;;;;;;;;;9.00;9.00;;;;;6.89;58.61;101046.19;5033583;28;44913;-69
2021/12/03 03:08:05;;;;;;;;;9.25;7.75;;;;;6.82;59.07;101042.34;5032368;28;45113;-67
2021/12/03 03:10:35;;;;;;;;;13.00;10.25;;;;;4.64;59.15;100664.41;5033171;28;45787;-68
2021/12/03 03:13:01;;;;;;;;;9.00;8.00;;;;;6.80;59.33;101041.38;5033170;28;46005;-67
2021/12/03 03:15:27;;;;;;;;;8.75;8.25;;;;;6.78;58.80;101038.66;5032744;28;44893;-68
2021/12/03 03:17:53;;;;;;;;;14.50;12.25;;;;;6.76;58.85;101032.34;5032922;28;44926;-69
2021/12/03 03:20:19;;;;;;;;;10.00;8.25;;;;;6.33;58.86;100963.09;5033618;28;45125;-68
2021/12/03 03:22:47;;;;;;;;;13.00;12.25;;;;;6.74;58.87;101033.13;5032996;28;45645;-68
2021/12/03 03:25:15;;;;;;;;;9.25;9.00;;;;;6.18;58.84;100947.34;5032131;28;45065;-69
2021/12/03 03:27:42;;;;;;;;;12.25;8.00;;;;;6.71;59.25;101032.97;5011801;28;44975;-69
2021/12/03 03:30:12;;;;;;;;;11.25;8.75;;;;;6.72;59.52;101035.72;5012956;28;45069;-69
2021/12/03 03:32:37;;;;;;;;;10.50;8.75;;;;;6.67;59.37;101031.94;5011785;28;46232;-68
2021/12/03 03:35:04;;;;;;;;;15.75;10.75;;;;;6.61;59.34;101013.06;5012618;28;45678;-70
2021/12/03 03:37:29;;;;;;;;;8.25;8.00;;;;;6.28;59.41;100957.56;5014132;28;45136;-67
2021/12/03 03:39:55;;;;;;;;;4.00;4.00;;;;;6.75;59.12;101032.31;5032874;28;45251;-68
2021/12/03 03:42:20;;;;;;;;;12.00;7.75;;;;;6.71;58.93;101031.22;5032841;28;45489;-68
2021/12/03 03:44:46;;;;;;;;;9.00;8.00;;;;;6.20;58.86;100950.97;5032832;28;45185;-68
2021/12/03 03:47:12;;;;;;;;;14.50;8.75;;;;;6.69;58.94;101037.31;5032549;28;45115;-68
2021/12/03 03:49:38;;;;;;;;;9.00;8.00;;;;;6.68;59.03;101028.41;5032496;28;44867;-69
2021/12/03 03:52:05;;;;;;;;;12.25;8.00;;;;;6.54;59.06;101017.16;5032979;28;45743;-69
2021/12/03 03:54:31;;;;;;;;;8.50;7.75;;;;;6.76;59.24;101044.72;5032275;28;44958;-68
2021/12/03 03:56:56;;;;;;;;;8.50;7.25;;;;;6.74;59.01;101031.38;5032578;28;45220;-68
2021/12/03 03:59:22;;;;;;;;;9.50;9.00;;;;;6.74;59.18;101043.75;5033033;28;45148;-69
2021/12/03 04:01:49;;;;;;;;;7.25;6.50;;;;;6.73;58.99;101028.63;5032206;28;45273;-69
2021/12/03 04:04:15;;;;;;;;;7.00;7.00;;;;;6.55;59.49;100992.47;5032624;28;45091;-68
2021/12/03 04:06:41;;;;;;;;;8.75;7.00;;;;;6.73;59.23;101024.25;5032541;28;44913;-68
2021/12/03 04:09:08;;;;;;;;;9.25;7.00;;;;;6.63;59.31;101012.31;5032493;28;45035;-68
2021/12/03 04:11:33;;;;;;;;;7.75;6.50;;;;;6.74;59.22;101028.72;5031873;28;45284;-70
2021/12/03 04:13:59;;;;;;;;;8.50;7.00;;;;;6.71;59.39;101023.25;5032724;28;44890;-69
2021/12/03 04:16:24;;;;;;;;;8.50;3.25;;;;;6.62;59.07;101005.16;5032697;28;45109;-67
2021/12/03 04:18:50;;;;;;;;;8.75;6.00;;;;;6.66;58.86;101015.94;5032906;28;44843;-68
2021/12/03 04:21:16;;;;;;;;;7.25;3.75;;;;;6.64;58.80;101002.59;5030945;28;46451;-66
2021/12/03 04:23:41;;;;;;;;;6.25;6.25;;;;;6.63;58.66;101003.41;5047529;28;45010;-69
2021/12/03 04:26:07;;;;;;;;;2.50;2.50;;;;;6.53;58.73;100990.56;5032561;28;45264;-69
2021/12/03 04:28:32;;;;;;;;;9.75;8.00;;;;;6.58;58.53;101011.19;5032304;28;45142;-67
2021/12/03 04:30:58;;;;;;;;;6.75;5.50;;;;;6.25;58.60;100955.69;5032050;28;46089;-69
2021/12/03 04:33:24;;;;;;;;;6.25;3.75;;;;;6.71;58.65;101032.97;5032018;28;45148;-67
2021/12/03 04:35:49;;;;;;;;;6.00;4.50;;;;;6.62;58.88;101006.91;5031499;28;45232;-69
2021/12/03 04:38:15;;;;;;;;;6.00;6.00;;;;;6.51;58.65;100978.97;5032392;28;45253;-66
2021/12/03 04:40:42;;;;;;;;;11.50;7.50;;;;;6.50;58.56;100974.47;5032068;28;45491;-68
2021/12/03 04:43:08;;;;;;;;;6.00;6.00;;;;;6.72;58.65;101027.75;5031519;28;44997;-70
2021/12/03 04:45:34;;;;;;;;;8.75;7.00;;;;;6.66;58.15;101011.53;5034017;28;45028;-66
2021/12/03 04:48:01;;;;;;;;;6.00;6.00;;;;;6.74;58.47;101003.91;5035363;28;44920;-70
2021/12/03 04:50:30;;;;;;;;;3.75;3.75;;;;;6.73;58.30;101008.34;5031667;28;45200;-68
2021/12/03 04:52:56;;;;;;;;;7.50;6.25;;;;;6.71;58.64;101007.31;5030388;28;44969;-68
2021/12/03 04:55:23;;;;;;;;;6.00;4.00;;;;;6.69;58.60;100990.41;5033978;28;45107;-68
2021/12/03 04:57:50;;;;;;;;;4.00;3.50;;;;;6.77;58.18;100999.66;5032000;28;45064;-69
2021/12/03 05:00:20;;;;;;;;;7.25;6.00;;;;;6.76;57.92;101018.16;5033323;28;45531;-69
2021/12/03 05:02:46;;;;;;;;;7.25;4.50;;;;;6.64;58.24;100994.63;5033102;28;45377;-70
2021/12/03 05:05:12;;;;;;;;;7.00;4.50;;;;;6.55;58.42;100972.94;5033166;28;45473;-69
2021/12/03 05:10:03;;;;;;;;;9.00;6.00;;;;;6.62;58.19;100983.94;5033881;28;45084;-68
2021/12/03 05:12:28;;;;;;;;;10.00;5.50;;;;;6.63;58.25;100988.41;5033752;28;45456;-68
2021/12/03 05:14:53;;;;;;;;;7.50;4.50;;;;;6.28;58.42;100934.56;5034646;28;45144;-69
2021/12/03 05:17:19;;;;;;;;;7.25;5.75;;;;;6.53;57.94;100962.25;5033566;28;45292;-68
2021/12/03 05:19:44;;;;;;;;;3.50;3.50;;;;;6.50;58.25;100961.22;5033030;28;45312;-69
2021/12/03 05:22:12;;;;;;;;;5.00;5.00;;;;;6.30;58.23;100921.38;5032954;28;44958;-68
2021/12/03 05:24:37;;;;;;;;;7.75;4.00;;;;;6.53;58.09;100970.22;5023775;28;45425;-67
2021/12/03 05:27:03;;;;;;;;;7.25;4.50;;;;;6.55;58.15;100965.91;5032586;28;44915;-67
2021/12/03 05:29:28;;;;;;;;;3.00;3.00;;;;;6.32;58.12;100933.00;5032386;28;46498;-68
2021/12/03 05:31:53;;;;;;;;;4.50;3.00;;;;;6.26;58.26;100925.66;5048162;28;45287;-70
2021/12/03 05:34:20;;;;;;;;;4.00;4.00;;;;;6.41;57.69;100940.47;5048157;28;45167;-67
2021/12/03 05:36:46;;;;;;;;;6.00;3.25;;;;;6.61;57.88;100966.16;5034978;28;44985;-69
2021/12/03 05:39:12;;;;;;;;;6.50;3.75;;;;;6.62;57.87;100960.03;5032991;28;47285;-68
2021/12/03 05:41:37;;;;;;;;;4.50;3.75;;;;;6.43;57.37;100939.72;5033330;28;45505;-70
2021/12/03 05:44:04;;;;;;;;;6.00;6.00;;;;;6.62;57.47;100967.09;5032971;28;45247;-69
2021/12/03 05:46:30;;;;;;;;;7.00;7.00;;;;;6.67;58.67;100965.56;5034859;28;45149;-68
2021/12/03 05:48:56;;;;;;;;;6.75;4.00;;;;;6.42;57.66;100906.03;5032198;28;45713;-68
2021/12/03 05:51:21;;;;;;;;;11.50;6.75;;;;;6.77;57.43;100958.91;5032211;28;45091;-65
2021/12/03 05:53:46;;;;;;;;;5.00;5.00;;;;;6.63;57.23;100929.06;5032630;28;45224;-65
2021/12/03 05:56:12;;;;;;;;;3.75;3.25;;;;;6.78;57.62;100955.41;5031952;28;45039;-67
2021/12/03 05:58:37;;;;;;;;;3.50;3.50;;;;;6.75;57.48;100931.41;5031958;28;45598;-67
2021/12/03 06:01:03;;;;;;;;;3.00;3.00;;;;;6.88;57.37;100939.06;5031886;28;45052;-66
2021/12/03 06:03:29;;;;;;;;;7.75;7.50;;;;;6.94;57.39;100923.38;5017739;28;45289;-72
2021/12/03 06:05:54;;;;;;;;;11.75;7.75;;;;;6.80;57.82;100901.53;5030938;28;45398;-66
2021/12/03 06:08:20;;;;;;;;;6.50;5.75;;;;;6.80;57.78;100882.94;5030640;28;45520;-68
2021/12/03 06:10:45;;;;;;;;;6.00;3.75;;;;;6.71;56.74;100863.94;5031253;28;45234;-66
2021/12/03 06:13:11;;;;;;;;;3.50;3.00;;;;;6.77;56.86;100888.13;5020929;28;45061;-70
2021/12/03 06:15:36;;;;;;;;;6.75;3.50;;;;;6.90;56.46;100920.53;5033047;28;45126;-69
2021/12/03 06:18:03;;;;;;;;;6.50;3.75;;;;;6.90;57.39;100939.13;5031713;28;45927;-70
2021/12/03 06:20:29;;;;;;;;;10.50;7.00;;;;;6.91;57.29;100928.56;5031051;28;45119;-69
2021/12/03 06:22:55;;;;;;;;;3.50;3.50;;;;;6.87;56.98;100920.41;5040124;28;45325;-67
2021/12/03 06:25:21;;;;;;;;;5.00;4.00;;;;;6.93;57.20;100937.53;5041433;28;45453;-68
2021/12/03 06:27:47;;;;;;;;;8.50;4.50;;;;;6.92;57.19;100942.75;5030820;28;45756;-70
2021/12/03 06:30:16;;;;;;;;;5.00;5.00;;;;;6.41;57.42;100853.78;5031389;28;45119;-69
2021/12/03 06:32:41;;;;;;;;;7.00;6.00;;;;;6.56;57.23;100876.56;5031914;28;45810;-68
2021/12/03 06:35:10;;;;;;;;;6.25;4.50;;;;;6.83;57.16;100930.88;5031014;28;45413;-71
2021/12/03 06:37:35;;;;;;;;;10.75;5.75;;;;;6.66;57.59;100904.41;5030298;28;47851;-69
2021/12/03 06:40:01;;;;;;;;;9.75;4.00;;;;;6.81;57.76;100937.88;5029191;28;45254;-69
2021/12/03 06:42:27;;;;;;;;;7.25;4.50;;;;;6.62;57.92;100898.97;5032017;28;45121;-69
2021/12/03 06:44:53;;;;;;;;;6.75;6.75;;;;;6.81;57.58;100939.63;5032738;28;45175;-68
2021/12/03 06:47:18;;;;;;;;;7.00;4.00;;;;;6.80;57.92;100944.03;5025126;28;45151;-67
2021/12/03 06:49:43;;;;;;;;;3.75;3.75;;;;;6.81;57.42;100943.19;5031073;28;45119;-66
2021/12/03 06:52:13;;;;;;;;;4.50;4.50;;;;;6.79;57.67;100936.88;5046291;28;45502;-66
2021/12/03 06:54:39;;;;;;;;;6.25;5.00;;;;;6.62;57.37;100916.66;5032307;28;44965;-73
2021/12/03 06:57:07;;;;;;;;;0.75;0.75;;;;;6.74;57.38;100938.44;5030887;28;45636;-69
2021/12/03 06:59:33;;;;;;;;;3.25;3.25;;;;;6.71;57.68;100938.28;5032817;28;45176;-68
2021/12/03 07:02:00;;;;;;;;;7.50;7.50;;;;;6.74;57.70;100935.78;5022643;28;45110;-68
2021/12/03 07:04:25;;;;;;;;;7.50;6.00;;;;;6.71;57.73;100919.72;5031504;28;45043;-69
2021/12/03 07:06:51;;;;;;;;;8.00;6.00;;;;;6.59;57.65;100908.56;5031879;28;45798;-69
2021/12/03 07:09:17;;;;;;;;;5.25;3.25;;;;;6.72;57.88;100936.56;5030980;28;44931;-66
2021/12/03 07:11:43;;;;;;;;;11.25;7.25;;;;;6.71;57.88;100932.09;5031585;28;44936;-66
2021/12/03 07:14:09;;;;;;;;;6.25;6.00;;;;;6.71;57.99;100930.31;5027612;28;45084;-64
2021/12/03 07:16:35;;;;;;;;;8.75;6.00;;;;;6.70;57.94;100932.91;5011642;28;45736;-69
2021/12/03 07:19:00;;;;;;;;;10.50;6.00;;;;;6.71;57.72;100930.31;5010667;28;45270;-69
2021/12/03 07:21:26;;;;;;;;;4.75;4.75;;;;;6.55;57.53;100890.66;5024457;28;44946;-68
2021/12/03 07:23:53;;;;;;;;;8.00;4.50;;;;;6.70;57.87;100909.94;5031196;28;45133;-70
2021/12/03 07:26:20;;;;;;;;;5.25;4.00;;;;;6.74;58.06;100910.97;5030515;28;45180;-69
2021/12/03 07:28:45;;;;;;;;;3.25;3.25;;;;;6.46;57.55;100856.66;5029901;28;45019;-66
2021/12/03 07:31:11;;;;;;;;;3.00;2.75;;;;;6.68;57.70;100893.00;5031291;28;44969;-64
2021/12/03 07:33:38;;;;;;;;;9.50;5.50;;;;;6.83;57.69;100919.38;5030839;28;45163;-63
2021/12/03 07:36:05;;;;;;;;;1.50;1.00;;;;;6.63;57.30;100900.81;5029975;28;45470;-66
2021/12/03 07:38:31;;;;;;;;;6.25;4.00;;;;;6.67;57.10;100915.13;5032438;28;44948;-66
2021/12/03 07:40:57;;;;;;;;;2.75;2.75;;;;;6.69;57.66;100921.38;5025517;28;44983;-67
2021/12/03 07:43:22;;;;;;;;;7.50;3.25;;;;;6.52;57.78;100906.47;5025294;28;45440;-68
2021/12/03 07:45:49;;;;;;;;;0.50;0.00;;;;;6.63;58.44;100913.16;5030955;28;45711;-69
2021/12/03 07:48:14;;;;;;;;;4.50;2.75;;;;;6.66;57.93;100913.28;5018883;28;45048;-71
2021/12/03 07:50:41;;;;;;;;;4.00;3.00;;;;;6.53;57.74;100884.38;5029140;28;45136;-68
2021/12/03 07:53:09;;;;;;;;;4.00;3.00;;;;;6.67;58.03;100917.78;5022144;28;44920;-71
2021/12/03 07:55:35;;;;;;;;;3.25;3.25;;;;;6.80;57.30;100921.88;5013701;28;45648;-68
2021/12/03 07:58:02;;;;;;;;;6.50;3.75;;;;;6.65;57.58;100892.91;5028735;28;45502;-68
2021/12/03 08:00:28;;;;;;;;;9.75;7.00;;;;;6.67;57.60;100890.31;5045179;28;45039;-68
2021/12/03 08:02:53;;;;;;;;;3.00;3.00;;;;;6.72;57.85;100894.97;5030955;28;45089;-65
2021/12/03 08:05:19;;;;;;;;;2.00;1.50;;;;;6.80;57.14;100903.28;5029414;28;45107;-68
2021/12/03 08:07:46;;;;;;;;;6.00;5.50;;;;;6.87;57.36;100915.09;5030507;28;44989;-67
2021/12/03 08:10:13;;;;;;;;;3.00;2.00;;;;;6.84;57.24;100913.19;5029826;28;45369;-66
2021/12/03 08:12:40;;;;;;;;;7.00;7.00;;;;;6.85;57.15;100915.03;5022261;28;45147;-70
2021/12/03 08:15:06;;;;;;;;;2.00;2.00;;;;;6.86;56.62;100919.47;5028859;28;45385;-69
2021/12/03 08:17:32;;;;;;;;;4.50;4.50;;;;;6.86;57.12;100911.50;5023773;28;45221;-68
2021/12/03 08:19:57;;;;;;;;;7.25;5.00;;;;;6.54;56.51;100844.63;5032349;28;45221;-65
2021/12/03 08:22:22;;;;;;;;;6.00;3.00;;;;;6.94;56.68;100911.84;5030764;28;45037;-66
2021/12/03 08:24:48;;;;;;;;;6.50;2.75;;;;;6.69;56.09;100862.97;5032701;28;45156;-66
2021/12/03 08:27:13;;;;;;;;;6.00;4.00;;;;;7.00;56.34;100909.47;5027746;28;45567;-68
2021/12/03 08:29:39;;;;;;;;;5.25;4.50;;;;;7.05;56.45;100904.38;5032233;28;45417;-68
2021/12/03 08:32:04;;;;;;;;;2.00;2.00;;;;;7.06;56.40;100906.16;5025681;28;45354;-68
2021/12/03 08:34:30;;;;;;;;;1.00;1.00;;;;;7.06;55.76;100916.78;5024864;28;45858;-70
2021/12/03 08:36:55;;;;;;;;;5.00;2.75;;;;;7.06;55.43;100903.50;5034211;28;45332;-65
2021/12/03 08:39:21;;;;;;;;;7.75;3.00;;;;;6.93;55.37;100884.41;5009520;28;45301;-68
2021/12/03 08:41:46;;;;;;;;;10.00;8.00;;;;;7.06;55.39;100908.81;5020708;28;45441;-68
2021/12/03 08:44:12;;;;;;;;;3.50;3.50;;;;;6.98;55.75;100904.09;5023396;28;46151;-68
2021/12/03 08:46:38;;;;;;;;;4.00;3.00;;;;;7.01;55.36;100908.63;5012839;28;45494;-69
2021/12/03 08:49:15;;;;;;;;;3.00;3.00;;;;;7.01;55.36;100913.94;5019385;28;45422;-67
2021/12/03 08:56:54;;;;;;;;;3.00;3.00;;;;;6.88;55.44;100899.22;5027548;28;45632;-69
2021/12/03 08:59:20;;;;;;;;;5.75;3.50;;;;;6.97;55.35;100914.66;5034138;28;45258;-68
2021/12/03 09:01:46;;;;;;;;;11.50;7.50;;;;;6.92;55.49;100916.19;5029599;28;45165;-69
2021/12/03 09:04:16;;;;;;;;;5.00;2.75;;;;;6.89;55.52;100909.00;5018720;28;45839;-68
2021/12/03 09:06:41;;;;;;;;;6.75;3.50;;;;;6.90;55.62;100918.78;5009264;28;45470;-68
2021/12/03 09:09:08;;;;;;;;;3.00;3.00;;;;;6.67;55.30;100880.59;5018878;28;45508;-68
2021/12/03 09:11:35;;;;;;;;;4.00;3.25;;;;;6.82;55.88;100918.44;5035290;28;45416;-71
2021/12/03 09:14:03;;;;;;;;;2.00;2.00;;;;;6.75;55.83;100912.81;5023734;28;45280;-69
2021/12/03 09:16:29;;;;;;;;;6.75;2.00;;;;;6.75;56.09;100908.41;5030183;28;45727;-70
2021/12/03 09:18:55;;;;;;;;;8.50;6.00;;;;;6.61;56.14;100890.94;5021840;28;45375;-70
2021/12/03 09:26:16;;;;;;;;;5.00;5.00;;;;;6.81;57.75;100902.44;5021076;28;45272;-66
2021/12/03 09:28:52;;;;;;;;;2.00;1.75;;;;;6.43;57.94;100827.31;5027273;28;45696;-66
2021/12/03 09:31:18;;;;;;;;;6.00;6.00;;;;;6.85;58.39;100884.88;5019598;28;45393;-65
2021/12/03 09:33:47;;;;;;;;;6.00;3.75;;;;;6.73;58.82;100856.97;5040731;28;45492;-67
2021/12/03 09:36:13;;;;;;;;;3.00;3.00;;;;;6.86;58.90;100892.03;5030743;28;45510;-69
2021/12/03 09:38:39;;;;;;;;;3.25;2.75;;;;;6.63;58.29;100844.13;5032777;28;45171;-70
2021/12/03 09:41:29;;;;;;;;;8.00;5.50;;;;;6.85;58.83;100868.94;5027923;28;45212;-67
2021/12/03 09:43:54;;;;;;;;;6.00;3.50;;;;;6.53;58.94;100812.72;5006872;28;45848;-70
2021/12/03 09:46:26;;;;;;;;;3.75;3.75;;;;;6.86;58.42;100870.78;5021602;28;45255;-65
2021/12/03 09:51:37;;;;;;;;;8.00;8.00;;;;;6.89;59.09;100860.28;5017916;28;45474;-68
2021/12/03 09:56:44;;;;;;;;;4.25;2.25;;;;;6.55;59.78;100788.06;5020761;28;45523;-64
2021/12/03 10:04:42;;;;;;;;;7.75;6.00;;;;;6.94;59.41;100851.66;5015946;28;46045;-64
2021/12/03 10:18:20;;;;;;;;;7.50;7.50;;;;;7.00;61.93;100848.38;5007660;28;45454;-69
2021/12/03 10:21:38;;;;;;;;;7.00;5.00;;;;;7.01;61.97;100848.44;5003018;28;45583;-68
2021/12/03 10:40:34;;;;;;;;;12.00;8.50;;;;;6.74;65.27;100802.13;5028124;28;45212;-66
2021/12/03 10:43:12;;;;;;;;;7.75;7.00;;;;;6.72;65.08;100793.19;4995760;28;45501;-66
2021/12/03 10:45:58;;;;;;;;;14.00;11.75;;;;;6.74;65.68;100791.50;5002144;28;45284;-66
2021/12/03 10:51:25;;;;;;;;;10.00;8.25;;;;;6.60;66.15;100767.94;5012445;28;45371;-69
2021/12/03 10:54:32;;;;;;;;;7.00;6.75;;;;;6.55;65.87;100777.44;5032082;28;45197;-67
2021/12/03 10:57:06;;;;;;;;;6.25;6.25;;;;;6.58;66.65;100768.69;5013999;28;46718;-65
2021/12/03 11:07:59;;;;;;;;;8.25;8.25;;;;;6.56;67.44;100749.16;5024404;28;45274;-67
2021/12/03 11:16:44;;;;;;;;;8.00;6.50;;;;;6.37;67.90;100755.41;5018170;28;45346;-65
2021/12/03 11:25:23;;;;;;;;;8.25;8.00;;;;;6.31;69.20;100734.81;5017160;28;45477;-63
2021/12/03 11:38:43;;;;;;;;;13.50;10.50;;;;;5.98;69.20;100644.09;5015793;28;45490;-66
2021/12/03 11:58:53;;;;;;;;;13.50;13.00;;;;;6.40;69.63;100633.47;5030405;28;45131;-66
2021/12/03 14:51:23;;;;;;;;;7.75;2.00;;;;;6.73;71.52;100370.19;5007447;28;45559;-65
2021/12/03 14:54:24;;;;;;;;;3.00;3.00;;;;;6.63;71.71;100342.41;5015121;28;45658;-66
2021/12/03 14:57:18;;;;;;;;;4.00;4.00;;;;;6.81;71.04;100355.44;4999238;28;45392;-65
2021/12/03 14:59:51;;;;;;;;;2.00;2.00;;;;;6.79;71.05;100342.09;4995560;28;45509;-64
2021/12/03 15:07:34;;;;;;;;;6.00;3.50;;;;;6.89;71.19;100316.78;5002320;28;45347;-66
2021/12/03 15:10:03;;;;;;;;;2.25;2.25;;;;;6.81;70.39;100297.03;5030288;28;45375;-65
2021/12/03 15:18:23;;;;;;;;;4.75;3.50;;;;;6.99;70.73;100324.19;5014841;28;45453;-65
2021/12/03 15:31:27;;;;;;;;;3.25;3.00;;;;;6.86;71.25;100321.97;5012222;28;45608;-65
2021/12/03 15:34:02;;;;;;;;;3.00;2.00;;;;;6.62;71.89;100283.13;4999665;28;45495;-66
2021/12/03 15:55:34;;;;;;;;;9.75;6.50;;;;;6.88;72.11;100274.22;5004474;28;45405;-66
2021/12/03 16:08:39;;;;;;;;;6.25;6.00;;;;;7.00;72.12;100267.56;5006235;28;45540;-66
2021/12/03 16:27:10;;;;;;;;;6.25;6.25;;;;;7.30;72.51;100205.66;5017689;28;45353;-67
2021/12/03 16:53:31;;;;;;;;;5.00;4.00;;;;;7.36;71.44;100167.75;5015189;28;46040;-67
2021/12/03 16:58:43;;;;;;;;;6.50;6.50;;;;;7.40;71.42;100158.09;5007115;28;45869;-67
2021/12/03 17:25:43;;;;;;;;;13.00;11.00;;;;;7.50;72.17;100123.84;5015345;28;45561;-65
2021/12/03 17:49:16;;;;;;;;;18.00;15.00;;;;;7.59;72.71;100101.03;5026085;28;45265;-63
2021/12/03 17:56:39;;;;;;;;;32.75;27.50;;;;;7.53;72.62;100083.19;5010408;28;45442;-64
2021/12/03 18:02:04;;;;;;;;;14.25;13.75;;;;;7.38;72.24;100028.72;5026337;28;46614;-64
2021/12/03 18:07:34;;;;;;;;;25.75;20.75;;;;;7.48;72.79;100021.91;4995458;28;45624;-65
2021/12/03 18:47:41;;;;;;;;;25.00;21.75;;;;;7.79;73.35;99976.59;5006625;28;45521;-65
2021/12/03 18:55:38;;;;;;;;;27.25;22.50;;;;;7.78;73.72;99933.16;4995774;28;46123;-62
2021/12/03 18:58:07;;;;;;;;;25.50;20.25;;;;;7.85;73.13;99934.22;5014340;28;45351;-63
2021/12/03 19:00:39;;;;;;;;;30.50;26.25;;;;;7.96;72.91;99947.78;5014819;28;45368;-63
2021/12/03 19:08:32;;;;;;;;;26.50;22.75;;;;;7.59;72.98;99849.44;5014195;28;45437;-62
2021/12/03 19:11:04;;;;;;;;;44.00;36.50;;;;;8.06;74.10;99926.75;5014536;28;45399;-64
2021/12/03 19:13:35;;;;;;;;;27.50;23.75;;;;;7.88;73.55;99895.28;5015005;28;45277;-63
2021/12/03 19:16:02;;;;;;;;;23.75;19.75;;;;;8.14;73.41;99926.94;5006137;28;46559;-60
2021/12/03 19:18:28;;;;;;;;;23.25;19.75;;;;;8.13;73.53;99917.13;4998737;28;45330;-64
2021/12/03 19:20:53;;;;;;;;;30.75;27.25;;;;;8.10;73.10;99909.09;4995012;28;45415;-61